Time;durP1;ratioP1;P1;durP2;ratioP2;P2;SDS_P1;SDS_P2;PMS_P1;PMS_P2;Temp;Humidity;BMP_temperature;BMP_pressure;BME280_temperature;BME280_humidity;BME280_pressure;Samples;Min_cycle;Max_cycle;Signal;HPM_P1;HPM_P2
2021/04/23 00:00:54;;;;;;;12.13;5.25;;;;;;;2.94;60.57;98922.06;5026563;28;20021;-74
2021/04/23 00:03:33;;;;;;;15.20;6.05;;;;;;;2.95;61.44;98917.44;5030933;28;20037;-74
2021/04/23 00:06:27;;;;;;;16.65;6.07;;;;;;;2.93;61.74;98920.41;5024690;28;20120;-73
2021/04/23 00:09:11;;;;;;;18.98;6.55;;;;;;;2.90;61.72;98912.75;5025374;28;20045;-73
2021/04/23 00:11:42;;;;;;;24.13;10.65;;;;;;;2.84;61.15;98921.81;5024050;28;20408;-73
2021/04/23 00:14:11;;;;;;;33.75;12.65;;;;;;;2.81;61.81;98930.41;5014857;28;20114;-73
2021/04/23 00:16:38;;;;;;;22.02;8.10;;;;;;;2.77;61.39;98926.50;5014932;28;20025;-74
2021/04/23 00:19:09;;;;;;;21.60;8.18;;;;;;;2.71;61.83;98927.44;5023446;28;21132;-74
2021/04/23 00:21:34;;;;;;;20.33;7.65;;;;;;;2.69;61.10;98924.97;5023984;28;20371;-73
2021/04/23 00:24:00;;;;;;;20.48;6.95;;;;;;;2.66;61.25;98922.72;5024286;28;20028;-73
2021/04/23 00:26:26;;;;;;;19.65;6.82;;;;;;;2.63;61.52;98921.31;5023965;28;20037;-74
2021/04/23 00:28:51;;;;;;;17.40;5.68;;;;;;;2.59;62.01;98927.41;5025481;28;20393;-74
2021/04/23 00:31:17;;;;;;;17.38;5.95;;;;;;;2.57;62.21;98929.53;5023960;28;20030;-74
2021/04/23 00:33:42;;;;;;;11.43;4.75;;;;;;;2.53;61.88;98935.41;5018113;28;20036;-74
2021/04/23 00:36:09;;;;;;;12.93;4.95;;;;;;;2.48;62.47;98923.63;5018348;28;20035;-74
2021/04/23 00:38:36;;;;;;;10.38;3.30;;;;;;;2.45;62.60;98930.31;5021642;28;20041;-74
2021/04/23 00:41:07;;;;;;;10.10;3.75;;;;;;;2.43;63.08;98924.34;5028191;28;20059;-74
2021/04/23 00:43:35;;;;;;;11.32;3.90;;;;;;;2.40;62.92;98921.25;5028202;28;20037;-74
2021/04/23 00:46:03;;;;;;;9.45;3.33;;;;;;;2.37;62.54;98919.84;5028352;28;20139;-74
2021/04/23 00:48:31;;;;;;;12.70;4.72;;;;;;;2.35;62.92;98924.66;5028386;28;20025;-74
2021/04/23 00:51:02;;;;;;;13.02;4.57;;;;;;;2.31;63.40;98924.28;5028657;28;20994;-74
2021/04/23 00:53:31;;;;;;;16.13;5.35;;;;;;;2.33;63.70;98926.78;5027652;28;20144;-74
2021/04/23 00:55:59;;;;;;;13.13;5.30;;;;;;;2.34;63.10;98926.53;5018503;28;20140;-74
2021/04/23 00:58:26;;;;;;;15.55;5.82;;;;;;;2.34;62.82;98929.22;5020332;28;20486;-74
2021/04/23 01:01:01;;;;;;;11.00;4.38;;;;;;;2.34;63.14;98929.22;5027603;28;20025;-74
2021/04/23 01:03:29;;;;;;;14.38;4.80;;;;;;;2.32;63.47;98919.69;5029954;28;20029;-74
2021/04/23 01:05:56;;;;;;;12.05;4.40;;;;;;;2.30;63.50;98930.75;5027395;28;20025;-74
2021/04/23 01:08:25;;;;;;;9.88;4.43;;;;;;;2.30;63.11;98929.94;5027943;28;20548;-73
2021/04/23 01:10:54;;;;;;;9.63;4.38;;;;;;;2.29;63.70;98939.13;5027627;28;20478;-74
2021/04/23 01:13:19;;;;;;;10.15;4.10;;;;;;;2.27;64.75;98943.94;5028289;28;20103;-74
2021/04/23 01:15:45;;;;;;;11.82;4.57;;;;;;;2.26;64.55;98934.97;5022508;28;20053;-74
2021/04/23 01:18:10;;;;;;;11.63;5.03;;;;;;;2.29;64.97;98939.13;5016891;28;20629;-73
2021/04/23 01:20:35;;;;;;;13.20;4.93;;;;;;;2.28;64.63;98938.28;5050631;28;20060;-73
2021/04/23 01:23:01;;;;;;;11.05;4.22;;;;;;;2.29;65.26;98939.91;5026020;28;20534;-74
2021/04/23 01:25:27;;;;;;;10.50;4.20;;;;;;;2.30;65.43;98940.75;5025917;28;20692;-74
2021/04/23 01:27:52;;;;;;;9.23;4.15;;;;;;;2.30;64.77;98943.47;5025550;28;20056;-73
2021/04/23 01:30:20;;;;;;;11.68;4.20;;;;;;;2.30;64.28;98944.28;5025362;28;20091;-73
2021/04/23 01:32:46;;;;;;;13.32;5.28;;;;;;;2.29;64.93;98945.34;5027953;28;20481;-73
2021/04/23 01:35:19;;;;;;;11.60;4.82;;;;;;;2.28;65.39;98940.97;5024908;28;20535;-73
2021/04/23 01:37:45;;;;;;;13.93;5.25;;;;;;;2.29;65.42;98942.63;5047967;28;21209;-74
2021/04/23 01:40:12;;;;;;;11.07;4.30;;;;;;;2.30;65.93;98938.06;5017419;28;20026;-74
2021/04/23 01:42:38;;;;;;;13.18;4.97;;;;;;;2.29;65.28;98942.63;5023091;28;20053;-74
2021/04/23 01:45:07;;;;;;;13.32;4.60;;;;;;;2.30;65.27;98944.28;5045823;28;20419;-73
2021/04/23 01:47:32;;;;;;;9.68;4.32;;;;;;;2.27;65.53;98941.22;5043143;28;20169;-74
2021/04/23 01:49:58;;;;;;;15.93;4.97;;;;;;;2.26;65.99;98944.97;5058224;28;20030;-74
2021/04/23 01:52:25;;;;;;;13.25;6.50;;;;;;;2.23;65.95;98930.03;5030879;28;20489;-75
2021/04/23 01:54:51;;;;;;;13.48;5.57;;;;;;;2.19;66.19;98934.25;5028154;28;20043;-75
2021/04/23 01:57:18;;;;;;;14.00;5.43;;;;;;;2.19;66.33;98939.66;5022130;28;20126;-75
2021/04/23 01:59:45;;;;;;;14.50;6.50;;;;;;;2.16;66.52;98945.53;5015951;28;20036;-75
2021/04/23 02:02:11;;;;;;;12.00;5.13;;;;;;;2.12;65.95;98941.63;5016961;28;20088;-76
2021/04/23 02:04:36;;;;;;;14.57;5.40;;;;;;;2.08;66.68;98943.97;5024982;28;20037;-75
2021/04/23 02:07:06;;;;;;;12.82;5.80;;;;;;;2.09;67.05;98942.91;5025120;28;20449;-75
2021/04/23 02:09:33;;;;;;;16.13;6.35;;;;;;;2.07;66.70;98940.44;5024902;28;20027;-75
2021/04/23 02:11:58;;;;;;;14.02;5.40;;;;;;;2.05;66.94;98949.81;5024736;28;20052;-75
2021/04/23 02:14:25;;;;;;;16.48;6.15;;;;;;;2.03;66.60;98946.53;5025880;28;20124;-75
2021/04/23 02:16:51;;;;;;;15.57;6.30;;;;;;;2.05;67.02;98944.41;5025524;28;20037;-76
2021/04/23 02:19:17;;;;;;;19.95;8.57;;;;;;;2.07;67.72;98942.31;5019244;28;20741;-75
2021/04/23 02:21:44;;;;;;;12.93;5.25;;;;;;;2.06;67.15;98941.50;5017410;28;20032;-75
2021/04/23 02:24:10;;;;;;;12.95;5.45;;;;;;;2.05;66.71;98942.53;5020478;28;20060;-75
2021/04/23 02:26:36;;;;;;;11.98;5.05;;;;;;;2.05;67.49;98937.13;5025708;28;20575;-76
2021/04/23 02:29:05;;;;;;;12.60;5.47;;;;;;;2.04;66.86;98945.47;5025948;28;20943;-76
2021/04/23 02:31:31;;;;;;;13.25;5.43;;;;;;;2.04;67.68;98945.47;5026162;28;20029;-75
2021/04/23 02:34:01;;;;;;;15.05;5.53;;;;;;;2.00;67.85;98950.50;5026013;28;20397;-76
2021/04/23 02:36:28;;;;;;;15.50;5.90;;;;;;;1.99;68.28;98953.47;5026243;28;20036;-75
2021/04/23 02:38:53;;;;;;;16.20;5.95;;;;;;;1.98;67.54;98951.81;5023928;28;20052;-75
2021/04/23 02:41:20;;;;;;;15.82;6.13;;;;;;;1.94;67.76;98951.44;5017316;28;20026;-75
2021/04/23 02:43:50;;;;;;;11.73;5.72;;;;;;;1.95;67.67;98955.78;5017847;28;20021;-75
2021/04/23 02:46:16;;;;;;;18.48;7.50;;;;;;;1.93;68.37;98953.31;5023809;28;20025;-76
2021/04/23 02:48:43;;;;;;;21.10;7.03;;;;;;;1.91;67.89;98954.59;5024964;28;20053;-75
2021/04/23 02:51:19;;;;;;;17.95;6.65;;;;;;;1.88;68.02;98957.75;5027913;28;20037;-75
2021/04/23 02:53:45;;;;;;;17.20;6.43;;;;;;;1.88;68.07;98955.03;5025682;28;20025;-76
2021/04/23 02:56:13;;;;;;;22.85;6.93;;;;;;;1.84;68.74;98957.38;5025326;28;20022;-76
2021/04/23 02:58:39;;;;;;;21.30;7.30;;;;;;;1.86;68.89;98960.69;5024606;28;20761;-76
2021/04/23 03:01:12;;;;;;;26.45;7.78;;;;;;;1.86;68.50;98957.97;5019926;28;20028;-76
2021/04/23 03:03:38;;;;;;;17.98;7.30;;;;;;;1.86;69.07;98957.13;5048168;28;20663;-75
2021/04/23 03:06:05;;;;;;;19.92;7.43;;;;;;;1.88;69.53;98964.00;5019163;28;20033;-75
2021/04/23 03:08:31;;;;;;;20.35;6.85;;;;;;;1.89;69.31;98962.09;5027245;28;20037;-75
2021/04/23 03:11:13;;;;;;;19.92;7.35;;;;;;;1.90;69.43;98961.03;5025900;28;20610;-75
2021/04/23 03:13:44;;;;;;;22.58;7.05;;;;;;;1.94;69.16;98962.25;5024417;28;20049;-76
2021/04/23 03:16:10;;;;;;;18.27;6.78;;;;;;;1.99;69.26;98956.97;5024176;28;20127;-76
2021/04/23 03:18:38;;;;;;;18.27;7.13;;;;;;;2.02;68.76;98953.00;5024654;28;20035;-75
2021/04/23 03:21:06;;;;;;;16.05;6.60;;;;;;;2.05;69.43;98947.97;5055866;28;20025;-76
2021/04/23 03:23:31;;;;;;;17.48;6.47;;;;;;;2.09;69.17;98951.03;5015968;28;20039;-75
2021/04/23 03:26:02;;;;;;;18.00;7.57;;;;;;;2.08;68.81;98952.06;5017390;28;20658;-75
2021/04/23 03:28:28;;;;;;;15.38;6.50;;;;;;;2.06;69.12;98960.44;5037686;28;20029;-76
2021/04/23 03:30:54;;;;;;;19.02;6.00;;;;;;;2.09;69.21;98964.53;5025037;28;20492;-75
2021/04/23 03:33:20;;;;;;;19.35;5.72;;;;;;;2.06;68.91;98965.84;5025318;28;20029;-76
2021/04/23 03:35:56;;;;;;;15.90;6.35;;;;;;;2.04;68.72;98975.22;5027505;28;20047;-76
2021/04/23 03:38:23;;;;;;;18.55;6.35;;;;;;;2.03;68.54;98969.00;5025411;28;20083;-76
2021/04/23 03:40:49;;;;;;;17.85;7.63;;;;;;;2.02;68.73;98978.19;5024160;28;20026;-76
2021/04/23 03:43:15;;;;;;;14.05;6.45;;;;;;;1.98;69.03;98979.69;5018918;28;20036;-76
2021/04/23 03:45:41;;;;;;;13.18;6.15;;;;;;;1.96;68.72;98986.38;5015371;28;20687;-76
2021/04/23 03:48:07;;;;;;;15.30;6.40;;;;;;;1.91;68.70;98976.22;5017805;28;20117;-77
2021/04/23 03:50:34;;;;;;;14.52;5.63;;;;;;;1.91;68.61;98981.63;5024386;28;20099;-76
2021/04/23 03:53:02;;;;;;;18.17;6.97;;;;;;;1.91;68.59;98982.47;5024962;28;20737;-76
2021/04/23 03:55:31;;;;;;;17.88;6.88;;;;;;;1.91;68.83;98979.78;5041547;28;20025;-76
2021/04/23 03:57:57;;;;;;;15.73;6.22;;;;;;;1.96;69.15;98986.38;5025174;28;20037;-76
2021/04/23 04:00:31;;;;;;;13.93;6.50;;;;;;;1.97;69.08;98975.31;5026760;28;20033;-76
2021/04/23 04:02:57;;;;;;;32.72;12.82;;;;;;;2.01;69.11;98979.22;5022699;28;20035;-76
2021/04/23 04:05:22;;;;;;;22.50;7.95;;;;;;;2.03;69.06;98979.81;5014458;28;20025;-76
2021/04/23 04:07:48;;;;;;;20.27;8.43;;;;;;;2.07;68.65;98989.16;5015252;28;20033;-76
2021/04/23 04:10:15;;;;;;;19.63;7.50;;;;;;;2.12;69.36;98984.94;5039416;28;20875;-76
2021/04/23 04:12:41;;;;;;;20.23;6.95;;;;;;;2.20;69.24;98987.31;5060337;28;20021;-77
2021/04/23 04:15:07;;;;;;;18.83;7.25;;;;;;;2.28;68.98;98984.28;5027776;28;20045;-77
2021/04/23 04:17:32;;;;;;;18.40;6.80;;;;;;;2.36;68.68;98988.56;5028204;28;20025;-76
2021/04/23 04:19:59;;;;;;;13.55;5.47;;;;;;;2.42;69.31;98989.53;5028203;28;20034;-75
2021/04/23 04:22:24;;;;;;;13.88;5.90;;;;;;;2.49;69.35;98992.97;5028378;28;20029;-76
2021/04/23 04:24:49;;;;;;;14.27;5.78;;;;;;;2.56;68.98;99001.84;5024113;28;20029;-76
2021/04/23 04:27:16;;;;;;;20.70;6.40;;;;;;;2.63;69.39;98996.31;5019780;28;20120;-76
2021/04/23 04:29:43;;;;;;;21.48;6.60;;;;;;;2.72;69.52;99002.22;5021073;28;20049;-76
2021/04/23 04:32:08;;;;;;;15.95;6.50;;;;;;;2.79;69.07;99001.06;5027433;28;20037;-76
2021/04/23 04:34:34;;;;;;;17.40;7.30;;;;;;;2.88;69.17;99006.13;5027498;28;20168;-75
2021/04/23 04:36:59;;;;;;;15.35;6.63;;;;;;;2.94;69.00;99006.06;5027738;28;20052;-76
2021/04/23 04:39:24;;;;;;;18.40;7.38;;;;;;;2.96;68.64;99001.22;5027747;28;20522;-77
2021/04/23 04:41:51;;;;;;;24.88;8.88;;;;;;;3.03;68.26;98998.41;5027435;28;20132;-77
2021/04/23 04:44:17;;;;;;;42.60;12.85;;;;;;;3.06;68.55;99018.78;5028363;28;20063;-77
2021/04/23 04:46:42;;;;;;;51.55;14.10;;;;;;;3.06;68.47;99008.78;5020368;28;20029;-77
2021/04/23 04:49:07;;;;;;;44.97;14.05;;;;;;;3.11;68.44;99008.06;5018844;28;20025;-76
2021/04/23 04:51:33;;;;;;;17.60;7.57;;;;;;;3.19;68.31;99018.56;5022553;28;20541;-77
2021/04/23 04:53:58;;;;;;;18.73;7.05;;;;;;;3.24;68.17;99015.19;5028372;28;20106;-77
2021/04/23 04:56:23;;;;;;;21.35;7.82;;;;;;;3.33;68.00;99019.16;5027805;28;20017;-77
2021/04/23 04:58:49;;;;;;;22.00;8.45;;;;;;;3.48;68.12;99017.88;5028080;28;20030;-76
2021/04/23 05:01:15;;;;;;;20.73;7.88;;;;;;;3.58;68.29;99018.94;5029326;28;20033;-76
2021/04/23 05:03:40;;;;;;;18.83;8.15;;;;;;;3.68;67.67;99014.81;5027571;28;20104;-77
2021/04/23 05:06:08;;;;;;;15.40;6.28;;;;;;;3.74;68.25;99027.44;5025416;28;20033;-76
2021/04/23 05:08:33;;;;;;;16.80;6.03;;;;;;;3.81;67.68;99032.72;5019338;28;20024;-77
2021/04/23 05:10:59;;;;;;;14.57;6.13;;;;;;;3.88;67.81;99036.13;5017918;28;20021;-76
2021/04/23 05:13:24;;;;;;;14.38;6.22;;;;;;;3.91;67.67;99046.53;5025179;28;20191;-77
2021/04/23 05:15:49;;;;;;;14.90;5.68;;;;;;;3.94;66.87;99043.34;5027021;28;20628;-76
2021/04/23 05:18:15;;;;;;;15.25;5.90;;;;;;;3.94;67.38;99039.78;5026987;28;20025;-76
2021/04/23 05:20:40;;;;;;;14.10;5.45;;;;;;;4.02;66.75;99039.41;5026908;28;20478;-76
2021/04/23 05:23:07;;;;;;;13.77;6.10;;;;;;;4.07;67.03;99042.25;5027619;28;20032;-76
2021/04/23 05:25:33;;;;;;;79.18;41.72;;;;;;;4.11;66.96;99048.84;5028592;28;20481;-76
2021/04/23 05:27:59;;;;;;;16.42;7.07;;;;;;;4.20;67.30;99048.47;5024064;28;20032;-76
2021/04/23 05:30:29;;;;;;;16.45;5.97;;;;;;;4.26;67.05;99044.81;5017655;28;20017;-76
2021/04/23 05:32:56;;;;;;;12.73;5.35;;;;;;;4.37;66.73;99051.28;5019788;28;20534;-76
2021/04/23 05:35:23;;;;;;;16.42;6.72;;;;;;;4.46;66.97;99047.94;5040552;28;20021;-76
2021/04/23 05:37:50;;;;;;;13.60;6.30;;;;;;;4.46;66.21;99053.34;5028540;28;20056;-76
2021/04/23 05:40:19;;;;;;;25.95;11.52;;;;;;;4.47;66.32;99055.00;5026528;28;20848;-76
2021/04/23 05:42:45;;;;;;;23.85;8.95;;;;;;;4.46;67.12;99055.25;5026645;28;20017;-76
2021/04/23 05:45:12;;;;;;;13.88;6.18;;;;;;;4.55;66.58;99066.56;5026675;28;20083;-75
2021/04/23 05:47:39;;;;;;;33.22;11.60;;;;;;;4.64;66.75;99075.16;5040697;28;20112;-76
2021/04/23 05:50:07;;;;;;;31.63;12.43;;;;;;;4.72;66.72;99069.34;5018398;28;20026;-76
2021/04/23 05:52:33;;;;;;;12.40;6.35;;;;;;;4.84;66.73;99072.00;5019112;28;20113;-76
2021/04/23 05:54:58;;;;;;;19.52;7.07;;;;;;;4.93;66.33;99070.53;5047310;28;20111;-76
2021/04/23 05:57:24;;;;;;;20.00;6.93;;;;;;;4.98;66.64;99080.66;5052253;28;20038;-76
2021/04/23 05:59:49;;;;;;;16.83;7.20;;;;;;;5.03;66.80;99078.88;5053538;28;20548;-76
2021/04/23 06:02:14;;;;;;;15.93;7.28;;;;;;;5.09;66.26;99078.97;5054425;28;20028;-76
2021/04/23 06:04:40;;;;;;;17.55;6.28;;;;;;;5.09;65.79;99079.78;5054302;28;20132;-76
2021/04/23 06:07:05;;;;;;;19.95;8.10;;;;;;;5.16;65.62;99079.63;5054328;28;20473;-76
2021/04/23 06:09:31;;;;;;;16.58;6.65;;;;;;;5.19;65.99;99070.97;5054370;28;20381;-77
2021/04/23 06:11:57;;;;;;;14.88;6.35;;;;;;;5.12;66.13;99079.31;5054144;28;20496;-76
2021/04/23 06:14:23;;;;;;;17.33;6.45;;;;;;;5.04;65.94;99079.69;5054130;28;20098;-76
2021/04/23 06:16:53;;;;;;;14.43;6.20;;;;;;;5.05;65.95;99084.91;5053535;28;20489;-77
2021/04/23 06:19:20;;;;;;;13.93;6.53;;;;;;;5.07;65.89;99087.38;5054039;28;20119;-76
2021/04/23 06:21:45;;;;;;;13.73;6.65;;;;;;;5.12;66.19;99082.03;5053762;28;20037;-77
2021/04/23 06:24:11;;;;;;;16.20;7.10;;;;;;;5.24;66.11;99087.38;5053848;28;20044;-77
2021/04/23 06:26:36;;;;;;;17.77;7.50;;;;;;;5.41;66.03;99087.41;5054047;28;20039;-77
2021/04/23 06:29:02;;;;;;;12.90;6.40;;;;;;;5.54;66.48;99083.53;5053878;28;20052;-77
2021/04/23 06:31:27;;;;;;;14.10;6.03;;;;;;;5.63;65.40;99087.47;5053293;28;20025;-77
2021/04/23 06:33:53;;;;;;;18.17;6.90;;;;;;;5.68;65.18;99089.47;5053071;28;20423;-77
2021/04/23 06:36:20;;;;;;;18.52;7.63;;;;;;;5.80;65.09;99095.63;5053584;28;20055;-76
2021/04/23 06:38:45;;;;;;;14.80;7.00;;;;;;;5.83;64.37;99086.16;5052258;28;20031;-76
2021/04/23 06:41:12;;;;;;;19.17;10.20;;;;;;;5.82;63.99;99095.41;5053507;28;20029;-76
2021/04/23 06:43:37;;;;;;;22.98;11.23;;;;;;;5.88;64.65;99094.41;5053556;28;20024;-77
2021/04/23 06:46:03;;;;;;;23.60;10.95;;;;;;;5.91;64.49;99091.16;5053408;28;20036;-76
2021/04/23 06:48:29;;;;;;;19.42;8.20;;;;;;;5.91;64.10;99093.88;5052907;28;20086;-77
2021/04/23 06:50:54;;;;;;;30.52;13.05;;;;;;;5.87;64.02;99092.75;5053381;28;20479;-77
2021/04/23 06:53:20;;;;;;;34.72;10.95;;;;;;;5.86;63.90;99088.38;5053316;28;20025;-76
2021/04/23 06:55:46;;;;;;;20.10;8.07;;;;;;;5.87;63.76;99090.03;5051996;28;20025;-77
2021/04/23 06:58:12;;;;;;;27.75;10.00;;;;;;;5.93;63.92;99083.56;5053180;28;20380;-76
2021/04/23 07:00:40;;;;;;;16.52;6.88;;;;;;;6.09;64.19;99089.28;5053184;28;20048;-77
2021/04/23 07:03:09;;;;;;;13.30;7.50;;;;;;;6.19;63.86;99094.03;5053220;28;20025;-77
2021/04/23 07:05:36;;;;;;;22.48;8.80;;;;;;;6.21;63.50;99094.59;5052856;28;20016;-77
2021/04/23 07:08:02;;;;;;;12.88;6.68;;;;;;;6.23;63.22;99085.13;5053089;28;20499;-77
2021/04/23 07:10:29;;;;;;;13.32;6.50;;;;;;;6.29;63.31;99096.88;5052910;28;20017;-77
2021/04/23 07:12:56;;;;;;;25.95;11.88;;;;;;;6.33;62.63;99083.56;5052782;28;20017;-77
2021/04/23 07:15:23;;;;;;;28.83;10.82;;;;;;;6.34;63.46;99094.25;5052713;28;20094;-78
2021/04/23 07:17:50;;;;;;;33.72;13.75;;;;;;;6.33;62.94;99098.03;5053067;28;20013;-77
2021/04/23 07:20:16;;;;;;;18.60;8.45;;;;;;;6.29;62.60;99090.63;5051666;28;20167;-77
2021/04/23 07:22:42;;;;;;;32.85;11.18;;;;;;;6.29;62.72;99096.09;5053091;28;20033;-77
2021/04/23 07:25:08;;;;;;;21.35;9.68;;;;;;;6.34;63.28;99088.78;5052877;28;20032;-77
2021/04/23 07:27:36;;;;;;;14.98;7.50;;;;;;;6.36;62.31;99085.78;5051448;28;20431;-77
2021/04/23 07:30:07;;;;;;;14.85;7.88;;;;;;;6.30;62.13;99095.81;5051963;28;20029;-77
2021/04/23 07:32:34;;;;;;;42.10;17.80;;;;;;;6.31;62.63;99102.09;5051994;28;20392;-76
2021/04/23 07:35:00;;;;;;;21.63;9.80;;;;;;;6.30;62.10;99101.25;5051742;28;20032;-76
2021/04/23 07:37:25;;;;;;;25.05;12.85;;;;;;;6.31;62.57;99102.09;5052001;28;20478;-77
2021/04/23 07:39:51;;;;;;;20.65;9.27;;;;;;;6.36;61.98;99100.25;5052802;28;20028;-77
2021/04/23 07:42:17;;;;;;;22.73;10.80;;;;;;;6.37;62.39;99098.34;5052817;28;20034;-76
2021/04/23 07:44:42;;;;;;;33.72;14.25;;;;;;;6.41;62.63;99102.22;5051095;28;20029;-76
2021/04/23 07:47:08;;;;;;;23.00;11.23;;;;;;;6.52;62.49;99098.56;5052433;28;20028;-77
2021/04/23 07:49:34;;;;;;;22.80;10.63;;;;;;;6.50;62.16;99097.97;5052566;28;20044;-76
2021/04/23 07:51:59;;;;;;;19.55;9.05;;;;;;;6.53;61.96;99102.09;5052230;28;20481;-77
2021/04/23 07:54:25;;;;;;;13.88;6.80;;;;;;;6.65;62.60;99110.16;5052326;28;20052;-76
2021/04/23 07:56:50;;;;;;;16.67;7.90;;;;;;;6.74;62.48;99094.97;5052289;28;20028;-77
2021/04/23 07:59:15;;;;;;;22.30;9.63;;;;;;;6.98;62.71;99098.25;5051854;28;20072;-76
2021/04/23 08:01:41;;;;;;;15.68;7.50;;;;;;;7.31;62.61;99098.28;5051533;28;20025;-75
2021/04/23 08:04:06;;;;;;;19.02;7.97;;;;;;;7.55;61.19;99093.31;5052002;28;20104;-75
2021/04/23 08:06:32;;;;;;;15.02;6.53;;;;;;;7.69;60.42;99084.69;5051960;28;20025;-77
2021/04/23 08:08:57;;;;;;;16.92;7.65;;;;;;;7.70;59.29;99092.59;5052136;28;20386;-76
2021/04/23 08:11:23;;;;;;;20.67;9.15;;;;;;;7.67;58.56;99100.50;5050181;28;20118;-76
2021/04/23 08:13:49;;;;;;;37.75;16.90;;;;;;;7.48;57.58;99091.91;5052117;28;20497;-76
2021/04/23 08:16:16;;;;;;;32.90;11.00;;;;;;;7.39;58.13;99091.53;5051641;28;20076;-74
2021/04/23 08:18:41;;;;;;;21.27;9.50;;;;;;;7.33;58.50;99096.13;5051629;28;20025;-76
2021/04/23 08:21:08;;;;;;;45.17;15.65;;;;;;;7.28;58.80;99109.72;5051802;28;20393;-75
2021/04/23 08:23:34;;;;;;;39.00;19.70;;;;;;;7.21;58.94;99104.47;5051677;28;20483;-74
2021/04/23 08:26:03;;;;;;;36.15;16.50;;;;;;;7.24;59.11;99103.13;5050471;28;20031;-75
2021/04/23 08:28:30;;;;;;;38.95;14.40;;;;;;;7.34;59.64;99107.84;5051708;28;20024;-75
2021/04/23 08:30:56;;;;;;;27.55;9.70;;;;;;;7.34;58.57;99095.03;5051654;28;20017;-75
2021/04/23 08:33:21;;;;;;;25.10;10.10;;;;;;;7.38;58.77;99100.78;5050880;28;20083;-74
2021/04/23 08:35:47;;;;;;;18.73;8.18;;;;;;;7.34;57.66;99111.41;5050429;28;20025;-75
2021/04/23 08:38:12;;;;;;;11.27;6.70;;;;;;;7.32;58.38;99110.84;5049502;28;20031;-74
2021/04/23 08:40:38;;;;;;;23.67;9.02;;;;;;;7.36;58.00;99111.97;5050356;28;20083;-75
2021/04/23 08:43:03;;;;;;;13.52;6.55;;;;;;;7.41;58.21;99108.47;5050558;28;20504;-75
2021/04/23 08:45:29;;;;;;;13.65;7.50;;;;;;;7.40;57.32;99104.09;5050494;28;20033;-75
2021/04/23 08:47:55;;;;;;;12.63;6.82;;;;;;;7.37;57.95;99110.06;5051003;28;20075;-75
2021/04/23 08:50:23;;;;;;;14.45;7.10;;;;;;;7.46;57.68;99111.25;5051271;28;20075;-75
2021/04/23 08:52:49;;;;;;;15.23;6.15;;;;;;;7.60;57.17;99093.34;5051726;28;20079;-75
2021/04/23 08:55:18;;;;;;;13.40;6.82;;;;;;;7.85;57.57;99088.34;5053030;28;20016;-75
2021/04/23 08:57:44;;;;;;;18.10;7.18;;;;;;;8.04;56.46;99095.00;5055987;28;20542;-74
2021/04/23 09:00:11;;;;;;;14.35;6.10;;;;;;;8.04;56.22;99094.22;5056006;28;20116;-75
2021/04/23 09:02:38;;;;;;;15.52;8.13;;;;;;;7.91;56.46;99100.97;5055804;28;20029;-75
2021/04/23 09:05:04;;;;;;;15.07;6.55;;;;;;;7.79;56.15;99105.78;5055810;28;20477;-74
2021/04/23 09:07:30;;;;;;;13.00;6.50;;;;;;;7.74;56.57;99109.31;5054363;28;20102;-75
2021/04/23 09:10:09;;;;;;;9.85;5.53;;;;;;;7.73;56.75;99111.19;5055482;28;20025;-75
2021/04/23 09:12:34;;;;;;;9.48;4.85;;;;;;;7.73;56.42;99107.66;5055276;28;20021;-74
2021/04/23 09:15:01;;;;;;;7.68;4.72;;;;;;;7.69;55.64;99106.53;5054775;28;20049;-75
2021/04/23 09:17:27;;;;;;;14.32;6.65;;;;;;;7.72;55.90;99097.81;5054868;28;20068;-74
2021/04/23 09:19:54;;;;;;;13.70;6.85;;;;;;;7.78;56.48;99098.66;5054892;28;20068;-76
2021/04/23 09:22:22;;;;;;;7.45;4.53;;;;;;;7.83;55.31;99093.25;5054915;28;20047;-75
2021/04/23 09:24:53;;;;;;;9.75;4.53;;;;;;;7.85;54.86;99099.28;5054840;28;20025;-74
2021/04/23 09:27:22;;;;;;;11.00;5.40;;;;;;;7.94;54.34;99097.69;5054840;28;20025;-75
2021/04/23 09:29:51;;;;;;;10.32;5.10;;;;;;;8.11;54.25;99093.97;5054691;28;20592;-73
2021/04/23 09:32:17;;;;;;;10.83;5.10;;;;;;;8.22;54.06;99092.94;5054656;28;20047;-72
2021/04/23 09:35:00;;;;;;;35.85;15.65;;;;;;;8.44;54.56;99079.13;5053057;28;20028;-72
2021/04/23 09:37:43;;;;;;;14.43;5.13;;;;;;;8.61;54.39;99091.75;5054971;28;20056;-72
2021/04/23 09:40:12;;;;;;;13.43;6.43;;;;;;;8.63;54.25;99084.13;5053422;28;20061;-72
2021/04/23 09:42:53;;;;;;;14.57;6.00;;;;;;;8.53;54.06;99092.31;5054639;28;20025;-72
2021/04/23 09:45:21;;;;;;;21.30;9.07;;;;;;;8.39;54.68;99087.28;5054605;28;20325;-71
2021/04/23 09:47:47;;;;;;;12.38;4.97;;;;;;;8.28;54.61;99094.63;5054682;28;20028;-72
2021/04/23 09:50:15;;;;;;;8.30;5.20;;;;;;;8.20;54.80;99095.94;5053278;28;20029;-73
2021/04/23 09:52:51;;;;;;;26.60;13.50;;;;;;;8.23;54.14;99097.31;5054425;28;20025;-73
2021/04/23 09:55:18;;;;;;;10.02;6.43;;;;;;;8.12;54.09;99110.09;5054471;28;20029;-75
2021/04/23 09:57:49;;;;;;;12.10;5.55;;;;;;;7.79;54.70;99111.25;5054307;28;20036;-72
2021/04/23 10:00:15;;;;;;;26.90;9.50;;;;;;;7.51;55.62;99137.78;5053199;28;20155;-73
2021/04/23 10:02:41;;;;;;;7.97;3.95;;;;;;;7.21;57.38;99139.94;5054338;28;20032;-73
2021/04/23 10:05:07;;;;;;;5.72;3.55;;;;;;;6.84;58.94;99141.44;5054293;28;20029;-73
2021/04/23 10:07:33;;;;;;;7.30;4.20;;;;;;;6.68;59.53;99137.72;5052705;28;20525;-73
2021/04/23 10:10:04;;;;;;;10.43;4.30;;;;;;;6.64;59.32;99131.13;5053988;28;20477;-74
2021/04/23 10:12:55;;;;;;;8.20;4.07;;;;;;;6.77;58.93;99126.38;5054006;28;20603;-74
2021/04/23 10:15:26;;;;;;;9.77;5.35;;;;;;;6.92;59.95;99120.25;5053765;28;20067;-77
2021/04/23 10:18:06;;;;;;;16.85;9.25;;;;;;;7.01;60.47;99113.28;5052473;28;20478;-75
2021/04/23 10:20:37;;;;;;;14.85;6.15;;;;;;;7.19;61.40;99108.53;5054031;28;20040;-78
2021/04/23 10:23:05;;;;;;;14.48;5.85;;;;;;;7.35;60.98;99093.13;5053631;28;20078;-76
2021/04/23 10:25:32;;;;;;;82.68;32.97;;;;;;;7.44;60.73;99099.75;5053609;28;20040;-75
2021/04/23 10:28:00;;;;;;;37.20;14.93;;;;;;;7.59;60.62;99096.34;5053390;28;20036;-75
2021/04/23 10:30:29;;;;;;;18.65;7.95;;;;;;;7.73;60.69;99094.81;5053376;28;20025;-76
2021/04/23 10:32:57;;;;;;;9.98;4.50;;;;;;;7.81;59.24;99095.41;5053562;28;20025;-75
2021/04/23 10:35:24;;;;;;;9.30;4.95;;;;;;;7.79;56.44;99109.31;5053531;28;20031;-76
2021/04/23 10:37:51;;;;;;;9.55;4.75;;;;;;;7.79;57.26;99092.94;5053257;28;20025;-78
2021/04/23 10:40:20;;;;;;;13.10;6.20;;;;;;;7.88;57.08;99088.63;5053389;28;20037;-76
2021/04/23 10:42:50;;;;;;;11.48;5.05;;;;;;;8.06;57.20;99078.38;5053372;28;20025;-77
2021/04/23 10:45:15;;;;;;;;;;;;;;;8.34;56.33;99073.59;5053764;28;20060;-76
2021/04/23 10:47:40;;;;;;;19.33;6.85;;;;;;;8.70;55.84;99070.22;5052145;28;20567;-76
2021/04/23 10:50:15;;;;;;;15.90;6.57;;;;;;;9.11;55.23;99066.72;5050658;28;20043;-76
2021/04/23 10:53:03;;;;;;;10.38;5.00;;;;;;;9.34;53.81;99077.19;5052108;28;20056;-76
2021/04/23 10:55:46;;;;;;;12.38;5.90;;;;;;;9.30;52.58;99087.03;5052590;28;20052;-77
2021/04/23 10:58:32;;;;;;;13.38;6.50;;;;;;;9.14;51.57;99079.88;5052243;28;20025;-76
2021/04/23 11:01:14;;;;;;;10.88;5.68;;;;;;;8.99;49.73;99094.34;5041100;28;20083;-77
2021/04/23 11:03:41;;;;;;;10.30;5.60;;;;;;;8.87;50.00;99086.41;5053013;28;20052;-76
2021/04/23 11:06:13;;;;;;;13.40;6.63;;;;;;;8.81;49.58;99093.75;5053136;28;20478;-77
2021/04/23 11:08:57;;;;;;;13.50;5.93;;;;;;;8.72;50.33;99096.19;5053334;28;20056;-76
2021/04/23 11:11:23;;;;;;;16.77;8.60;;;;;;;8.62;50.59;99107.91;5051868;28;20032;-76
2021/04/23 11:13:50;;;;;;;14.23;6.90;;;;;;;8.52;50.26;99094.19;5053172;28;20025;-77
2021/04/23 11:16:25;;;;;;;18.38;8.20;;;;;;;8.38;51.99;99104.78;5053659;28;20049;-77
2021/04/23 11:18:56;;;;;;;16.02;7.65;;;;;;;8.25;51.98;99094.31;5052770;28;20025;-77
2021/04/23 11:21:31;;;;;;;17.50;7.43;;;;;;;8.20;52.58;99090.47;5052960;28;20029;-76
2021/04/23 11:24:19;;;;;;;14.82;6.93;;;;;;;8.17;52.17;99098.38;5051655;28;20378;-77
2021/04/23 11:29:26;;;;;;;15.02;7.35;;;;;;;8.53;53.34;99101.31;5052722;28;20029;-76
2021/04/23 11:32:18;;;;;;;12.32;5.72;;;;;;;8.69;53.27;99091.25;5052874;28;20035;-76
2021/04/23 11:34:49;;;;;;;12.23;5.22;;;;;;;8.87;52.59;99081.72;5052729;28;20029;-76
2021/04/23 11:37:19;;;;;;;12.00;6.20;;;;;;;9.01;52.36;99084.78;5052528;28;20112;-76
2021/04/23 11:39:49;;;;;;;10.38;5.00;;;;;;;9.19;52.19;99082.63;5052562;28;20489;-76